sensor_id;sensor_type;location;lat;lon;timestamp;pressure;altitude;pressure_sealevel;temperature;humidity
79006;BME280;69202;45.498;-73.582;2023-07-29T00:00:34;100245.16;;;20.69;63.68
79006;BME280;69202;45.498;-73.582;2023-07-29T00:03:00;100331.06;;;21.20;64.83
79006;BME280;69202;45.498;-73.582;2023-07-29T00:05:26;100158.97;;;20.29;66.17
79006;BME280;69202;45.498;-73.582;2023-07-29T00:07:52;100329.72;;;21.28;64.70
79006;BME280;69202;45.498;-73.582;2023-07-29T00:10:20;100381.31;;;21.61;62.51
79006;BME280;69202;45.498;-73.582;2023-07-29T00:12:46;100190.56;;;20.16;59.53
79006;BME280;69202;45.498;-73.582;2023-07-29T00:15:18;100236.41;;;20.52;60.90
79006;BME280;69202;45.498;-73.582;2023-07-29T00:17:44;100332.72;;;21.21;62.02
79006;BME280;69202;45.498;-73.582;2023-07-29T00:20:10;100283.03;;;20.92;63.05
79006;BME280;69202;45.498;-73.582;2023-07-29T00:22:36;100288.25;;;20.99;65.89
79006;BME280;69202;45.498;-73.582;2023-07-29T00:25:02;100278.06;;;20.99;67.30
79006;BME280;69202;45.498;-73.582;2023-07-29T00:27:28;100356.78;;;21.70;66.36
79006;BME280;69202;45.498;-73.582;2023-07-29T00:29:57;100285.47;;;21.09;63.91
79006;BME280;69202;45.498;-73.582;2023-07-29T00:32:23;100217.47;;;20.55;62.16
79006;BME280;69202;45.498;-73.582;2023-07-29T00:34:51;100443.84;;;22.21;59.15
79006;BME280;69202;45.498;-73.582;2023-07-29T00:37:17;100283.28;;;21.01;59.47
79006;BME280;69202;45.498;-73.582;2023-07-29T00:39:43;100230.88;;;20.77;64.70
79006;BME280;69202;45.498;-73.582;2023-07-29T00:42:09;100444.88;;;22.35;65.68
79006;BME280;69202;45.498;-73.582;2023-07-29T00:44:38;100407.78;;;22.17;67.83
79006;BME280;69202;45.498;-73.582;2023-07-29T00:47:05;100223.88;;;21.10;66.20
79006;BME280;69202;45.498;-73.582;2023-07-29T00:49:34;100478.09;;;22.54;68.05
79006;BME280;69202;45.498;-73.582;2023-07-29T00:52:00;100292.81;;;21.39;66.08
79006;BME280;69202;45.498;-73.582;2023-07-29T00:54:26;100310.97;;;21.40;66.20
79006;BME280;69202;45.498;-73.582;2023-07-29T00:56:57;100253.03;;;21.06;62.75
79006;BME280;69202;45.498;-73.582;2023-07-29T00:59:30;100309.06;;;21.15;62.17
79006;BME280;69202;45.498;-73.582;2023-07-29T01:02:00;100143.06;;;20.11;66.35
79006;BME280;69202;45.498;-73.582;2023-07-29T01:04:31;100544.56;;;22.42;66.31
79006;BME280;69202;45.498;-73.582;2023-07-29T01:07:33;100522.25;;;22.43;68.22
79006;BME280;69202;45.498;-73.582;2023-07-29T01:10:10;100425.31;;;21.67;66.00
79006;BME280;69202;45.498;-73.582;2023-07-29T01:12:51;100476.94;;;22.10;65.47
79006;BME280;69202;45.498;-73.582;2023-07-29T01:15:36;100250.41;;;20.60;64.14
79006;BME280;69202;45.498;-73.582;2023-07-29T01:18:08;100292.97;;;20.68;61.45
79006;BME280;69202;45.498;-73.582;2023-07-29T01:20:38;100507.50;;;21.99;65.23
79006;BME280;69202;45.498;-73.582;2023-07-29T01:23:05;100411.06;;;21.24;66.57
79006;BME280;69202;45.498;-73.582;2023-07-29T01:25:31;100358.63;;;20.95;67.34
79006;BME280;69202;45.498;-73.582;2023-07-29T01:27:57;100560.03;;;22.28;70.58
79006;BME280;69202;45.498;-73.582;2023-07-29T01:30:33;100368.19;;;21.23;69.58
79006;BME280;69202;45.498;-73.582;2023-07-29T01:34:09;100498.38;;;22.18;70.05
79006;BME280;69202;45.498;-73.582;2023-07-29T01:36:15;100387.94;;;21.45;70.96
79006;BME280;69202;45.498;-73.582;2023-07-29T01:38:44;100512.72;;;22.21;69.80
79006;BME280;69202;45.498;-73.582;2023-07-29T01:41:12;100545.94;;;22.39;67.40
79006;BME280;69202;45.498;-73.582;2023-07-29T01:43:39;100414.91;;;21.58;65.05
79006;BME280;69202;45.498;-73.582;2023-07-29T01:46:10;100420.16;;;21.50;63.08
79006;BME280;69202;45.498;-73.582;2023-07-29T01:48:37;100309.16;;;20.80;63.13
79006;BME280;69202;45.498;-73.582;2023-07-29T01:51:04;100353.94;;;20.90;64.48
79006;BME280;69202;45.498;-73.582;2023-07-29T01:53:30;100504.19;;;22.07;63.98
79006;BME280;69202;45.498;-73.582;2023-07-29T01:55:56;100374.25;;;21.30;65.83
79006;BME280;69202;45.498;-73.582;2023-07-29T01:58:23;100410.22;;;21.54;65.72
79006;BME280;69202;45.498;-73.582;2023-07-29T02:00:49;100179.03;;;20.14;64.29
79006;BME280;69202;45.498;-73.582;2023-07-29T02:03:15;100534.47;;;22.17;62.64
79006;BME280;69202;45.498;-73.582;2023-07-29T02:05:41;100455.09;;;21.34;60.92
79006;BME280;69202;45.498;-73.582;2023-07-29T02:08:10;100550.22;;;21.91;60.01
79006;BME280;69202;45.498;-73.582;2023-07-29T02:10:36;100519.16;;;21.70;63.39
79006;BME280;69202;45.498;-73.582;2023-07-29T02:13:03;100452.09;;;21.30;64.57
79006;BME280;69202;45.498;-73.582;2023-07-29T02:15:29;100546.91;;;21.84;66.60
79006;BME280;69202;45.498;-73.582;2023-07-29T02:17:55;100331.19;;;20.64;67.43
79006;BME280;69202;45.498;-73.582;2023-07-29T02:20:21;100349.84;;;20.72;69.40
79006;BME280;69202;45.498;-73.582;2023-07-29T02:22:47;100515.53;;;21.90;67.40
79006;BME280;69202;45.498;-73.582;2023-07-29T02:25:14;100540.81;;;22.12;66.25
79006;BME280;69202;45.498;-73.582;2023-07-29T02:27:40;100500.38;;;21.87;65.96
79006;BME280;69202;45.498;-73.582;2023-07-29T02:30:06;100520.75;;;21.86;62.36
79006;BME280;69202;45.498;-73.582;2023-07-29T02:32:35;100512.25;;;21.73;65.79
79006;BME280;69202;45.498;-73.582;2023-07-29T02:35:01;100523.50;;;21.86;66.85
79006;BME280;69202;45.498;-73.582;2023-07-29T02:37:27;100508.66;;;21.82;66.77
79006;BME280;69202;45.498;-73.582;2023-07-29T02:39:53;100519.94;;;21.86;67.56
79006;BME280;69202;45.498;-73.582;2023-07-29T02:42:19;100542.75;;;22.12;67.05
79006;BME280;69202;45.498;-73.582;2023-07-29T02:44:45;100516.63;;;22.09;65.84
79006;BME280;69202;45.498;-73.582;2023-07-29T02:47:11;100397.06;;;21.30;64.74
79006;BME280;69202;45.498;-73.582;2023-07-29T02:49:37;100543.56;;;22.02;64.80
79006;BME280;69202;45.498;-73.582;2023-07-29T02:52:03;100450.38;;;21.55;68.04
79006;BME280;69202;45.498;-73.582;2023-07-29T02:54:29;100459.44;;;21.66;70.15
79006;BME280;69202;45.498;-73.582;2023-07-29T02:56:55;100470.66;;;21.84;70.32
79006;BME280;69202;45.498;-73.582;2023-07-29T02:59:21;100483.81;;;21.98;70.12
79006;BME280;69202;45.498;-73.582;2023-07-29T03:01:46;100355.25;;;21.23;71.73
79006;BME280;69202;45.498;-73.582;2023-07-29T03:04:12;100425.94;;;21.48;69.18
79006;BME280;69202;45.498;-73.582;2023-07-29T03:06:39;100440.44;;;21.69;67.24
79006;BME280;69202;45.498;-73.582;2023-07-29T03:09:04;100474.81;;;21.77;65.54
79006;BME280;69202;45.498;-73.582;2023-07-29T03:11:30;100481.69;;;21.84;66.93
79006;BME280;69202;45.498;-73.582;2023-07-29T03:13:57;100488.56;;;21.77;66.09
79006;BME280;69202;45.498;-73.582;2023-07-29T03:16:22;100385.25;;;21.04;69.52
79006;BME280;69202;45.498;-73.582;2023-07-29T03:18:49;100540.00;;;22.07;68.19
79006;BME280;69202;45.498;-73.582;2023-07-29T03:21:15;100350.13;;;20.76;69.16
79006;BME280;69202;45.498;-73.582;2023-07-29T03:23:41;100218.28;;;20.15;69.41
79006;BME280;69202;45.498;-73.582;2023-07-29T03:26:07;100327.56;;;20.79;66.90
79006;BME280;69202;45.498;-73.582;2023-07-29T03:28:38;100372.63;;;21.09;65.56
79006;BME280;69202;45.498;-73.582;2023-07-29T03:31:05;100375.38;;;20.93;68.44
79006;BME280;69202;45.498;-73.582;2023-07-29T03:33:31;100565.88;;;22.01;67.08
79006;BME280;69202;45.498;-73.582;2023-07-29T03:35:57;100356.44;;;20.66;68.13
79006;BME280;69202;45.498;-73.582;2023-07-29T03:38:23;100302.88;;;20.59;69.96
79006;BME280;69202;45.498;-73.582;2023-07-29T03:40:49;100581.59;;;22.10;69.88
79006;BME280;69202;45.498;-73.582;2023-07-29T03:43:15;100522.41;;;21.87;69.97
79006;BME280;69202;45.498;-73.582;2023-07-29T03:45:41;100455.09;;;21.44;70.88
79006;BME280;69202;45.498;-73.582;2023-07-29T03:48:07;100550.16;;;22.16;70.42
79006;BME280;69202;45.498;-73.582;2023-07-29T03:50:34;100428.69;;;21.43;72.17
79006;BME280;69202;45.498;-73.582;2023-07-29T03:53:01;100212.25;;;20.08;71.28
79006;BME280;69202;45.498;-73.582;2023-07-29T03:55:27;100401.72;;;21.45;70.49
79006;BME280;69202;45.498;-73.582;2023-07-29T03:57:57;100537.47;;;22.31;70.91
79006;BME280;69202;45.498;-73.582;2023-07-29T04:00:23;100355.56;;;21.17;67.66
79006;BME280;69202;45.498;-73.582;2023-07-29T04:02:49;100400.34;;;21.43;66.13
79006;BME280;69202;45.498;-73.582;2023-07-29T04:05:15;100554.03;;;22.15;63.61
79006;BME280;69202;45.498;-73.582;2023-07-29T04:07:41;100517.97;;;22.02;62.92
79006;BME280;69202;45.498;-73.582;2023-07-29T04:10:07;100468.25;;;21.68;63.87
79006;BME280;69202;45.498;-73.582;2023-07-29T04:12:33;100522.72;;;21.81;66.20
79006;BME280;69202;45.498;-73.582;2023-07-29T04:14:59;100492.97;;;21.78;67.57
79006;BME280;69202;45.498;-73.582;2023-07-29T04:17:25;100450.97;;;21.47;67.69
79006;BME280;69202;45.498;-73.582;2023-07-29T04:19:51;100423.72;;;21.25;68.13
79006;BME280;69202;45.498;-73.582;2023-07-29T04:22:17;100375.34;;;21.14;68.82
79006;BME280;69202;45.498;-73.582;2023-07-29T04:24:46;100521.84;;;22.11;70.16
79006;BME280;69202;45.498;-73.582;2023-07-29T04:27:12;100421.00;;;21.40;70.57
79006;BME280;69202;45.498;-73.582;2023-07-29T04:29:38;100423.41;;;21.62;70.78
79006;BME280;69202;45.498;-73.582;2023-07-29T04:32:04;100263.03;;;20.61;72.12
79006;BME280;69202;45.498;-73.582;2023-07-29T04:34:30;100418.44;;;21.64;70.81
79006;BME280;69202;45.498;-73.582;2023-07-29T04:36:59;100353.94;;;21.06;68.52
79006;BME280;69202;45.498;-73.582;2023-07-29T04:39:25;100266.06;;;20.50;66.53
79006;BME280;69202;45.498;-73.582;2023-07-29T04:41:51;100167.25;;;19.73;63.96
79006;BME280;69202;45.498;-73.582;2023-07-29T04:44:17;100480.91;;;21.69;61.99
79006;BME280;69202;45.498;-73.582;2023-07-29T04:46:43;100292.13;;;20.42;65.16
79006;BME280;69202;45.498;-73.582;2023-07-29T04:49:09;100409.16;;;21.14;66.73
79006;BME280;69202;45.498;-73.582;2023-07-29T04:51:35;100307.81;;;20.52;66.34
79006;BME280;69202;45.498;-73.582;2023-07-29T04:54:02;100208.69;;;20.02;68.73
79006;BME280;69202;45.498;-73.582;2023-07-29T04:56:31;100348.97;;;21.02;72.76
79006;BME280;69202;45.498;-73.582;2023-07-29T04:58:57;100422.31;;;21.63;73.25
79006;BME280;69202;45.498;-73.582;2023-07-29T05:01:23;100379.19;;;21.33;74.67
79006;BME280;69202;45.498;-73.582;2023-07-29T05:03:49;100346.75;;;21.30;75.32
79006;BME280;69202;45.498;-73.582;2023-07-29T05:06:15;100432.19;;;21.64;71.23
79006;BME280;69202;45.498;-73.582;2023-07-29T05:08:41;100545.16;;;22.34;70.99
79006;BME280;69202;45.498;-73.582;2023-07-29T05:11:07;100500.34;;;22.03;67.46
79006;BME280;69202;45.498;-73.582;2023-07-29T05:13:32;100505.31;;;22.11;74.12
79006;BME280;69202;45.498;-73.582;2023-07-29T05:15:58;100479.22;;;21.78;75.94
79006;BME280;69202;45.498;-73.582;2023-07-29T05:18:24;100485.25;;;21.90;74.97
79006;BME280;69202;45.498;-73.582;2023-07-29T05:20:53;100449.00;;;21.63;73.24
79006;BME280;69202;45.498;-73.582;2023-07-29T05:23:19;100201.56;;;20.11;70.29
79006;BME280;69202;45.498;-73.582;2023-07-29T05:25:48;100228.72;;;20.28;68.06
79006;BME280;69202;45.498;-73.582;2023-07-29T05:28:14;100405.06;;;21.17;66.86
79006;BME280;69202;45.498;-73.582;2023-07-29T05:30:40;100616.44;;;22.51;65.27
79006;BME280;69202;45.498;-73.582;2023-07-29T05:33:06;100573.84;;;22.23;65.36
79006;BME280;69202;45.498;-73.582;2023-07-29T05:35:35;100624.78;;;22.25;63.77
79006;BME280;69202;45.498;-73.582;2023-07-29T05:38:01;100460.91;;;21.27;62.78
79006;BME280;69202;45.498;-73.582;2023-07-29T05:40:28;100282.53;;;20.24;63.68
79006;BME280;69202;45.498;-73.582;2023-07-29T05:42:54;100415.50;;;20.89;62.03
79006;BME280;69202;45.498;-73.582;2023-07-29T05:45:21;100413.03;;;20.88;61.66
79006;BME280;69202;45.498;-73.582;2023-07-29T05:47:47;100331.13;;;20.29;60.39
79006;BME280;69202;45.498;-73.582;2023-07-29T05:50:13;100496.06;;;21.10;59.69
79006;BME280;69202;45.498;-73.582;2023-07-29T05:52:39;100526.06;;;21.32;58.50
79006;BME280;69202;45.498;-73.582;2023-07-29T05:55:05;100604.47;;;21.80;57.74
79006;BME280;69202;45.498;-73.582;2023-07-29T05:57:31;100601.16;;;21.73;56.98
79006;BME280;69202;45.498;-73.582;2023-07-29T05:59:57;100511.47;;;21.06;57.40
79006;BME280;69202;45.498;-73.582;2023-07-29T06:02:23;100390.97;;;20.11;57.48
79006;BME280;69202;45.498;-73.582;2023-07-29T06:04:49;100404.16;;;20.25;57.28
79006;BME280;69202;45.498;-73.582;2023-07-29T06:07:15;100590.16;;;21.43;57.96
79006;BME280;69202;45.498;-73.582;2023-07-29T06:09:41;100590.69;;;21.35;57.61
79006;BME280;69202;45.498;-73.582;2023-07-29T06:12:07;100574.16;;;21.09;57.78
79006;BME280;69202;45.498;-73.582;2023-07-29T06:14:33;100583.22;;;21.10;58.48
79006;BME280;69202;45.498;-73.582;2023-07-29T06:16:59;100543.03;;;20.83;59.18
79006;BME280;69202;45.498;-73.582;2023-07-29T06:19:25;100576.06;;;20.98;58.87
79006;BME280;69202;45.498;-73.582;2023-07-29T06:21:51;100543.88;;;20.89;59.17
79006;BME280;69202;45.498;-73.582;2023-07-29T06:24:20;100310.53;;;19.33;58.90
79006;BME280;69202;45.498;-73.582;2023-07-29T06:26:46;100265.47;;;19.14;58.57
79006;BME280;69202;45.498;-73.582;2023-07-29T06:29:12;100379.56;;;19.77;59.97
79006;BME280;69202;45.498;-73.582;2023-07-29T06:31:38;100606.31;;;21.09;60.10
79006;BME280;69202;45.498;-73.582;2023-07-29T06:34:04;100395.75;;;19.79;59.99
79006;BME280;69202;45.498;-73.582;2023-07-29T06:36:30;100397.63;;;19.63;60.89
79006;BME280;69202;45.498;-73.582;2023-07-29T06:38:56;100339.00;;;19.27;61.00
79006;BME280;69202;45.498;-73.582;2023-07-29T06:41:22;100613.72;;;20.98;61.26
79006;BME280;69202;45.498;-73.582;2023-07-29T06:43:48;100224.88;;;18.58;61.12
79006;BME280;69202;45.498;-73.582;2023-07-29T06:46:13;100303.56;;;19.15;60.98
79006;BME280;69202;45.498;-73.582;2023-07-29T06:48:39;100397.28;;;19.54;60.68
79006;BME280;69202;45.498;-73.582;2023-07-29T06:51:05;100452.97;;;20.02;60.37
79006;BME280;69202;45.498;-73.582;2023-07-29T06:53:34;100512.16;;;20.45;59.95
79006;BME280;69202;45.498;-73.582;2023-07-29T06:56:00;100574.38;;;20.87;59.90
79006;BME280;69202;45.498;-73.582;2023-07-29T06:58:26;100446.28;;;19.83;60.03
79006;BME280;69202;45.498;-73.582;2023-07-29T07:00:52;100249.41;;;18.80;59.89
79006;BME280;69202;45.498;-73.582;2023-07-29T07:03:18;100419.41;;;19.85;60.10
79006;BME280;69202;45.498;-73.582;2023-07-29T07:05:44;100356.09;;;19.39;60.45
79006;BME280;69202;45.498;-73.582;2023-07-29T07:08:10;100581.53;;;20.88;60.73
79006;BME280;69202;45.498;-73.582;2023-07-29T07:10:36;100596.38;;;20.87;61.85
79006;BME280;69202;45.498;-73.582;2023-07-29T07:13:02;100562.47;;;20.61;62.78
79006;BME280;69202;45.498;-73.582;2023-07-29T07:15:28;100386.09;;;19.61;61.37
79006;BME280;69202;45.498;-73.582;2023-07-29T07:17:54;100433.88;;;19.70;60.68
79006;BME280;69202;45.498;-73.582;2023-07-29T07:20:20;100507.84;;;20.07;60.63
79006;BME280;69202;45.498;-73.582;2023-07-29T07:22:46;100305.25;;;18.74;59.02
79006;BME280;69202;45.498;-73.582;2023-07-29T07:25:12;100438.78;;;19.68;60.14
79006;BME280;69202;45.498;-73.582;2023-07-29T07:27:38;100604.53;;;20.67;59.73
79006;BME280;69202;45.498;-73.582;2023-07-29T07:30:04;100462.81;;;19.98;60.90
79006;BME280;69202;45.498;-73.582;2023-07-29T07:32:30;100570.06;;;20.39;59.87
79006;BME280;69202;45.498;-73.582;2023-07-29T07:34:56;100386.63;;;19.16;58.68
79006;BME280;69202;45.498;-73.582;2023-07-29T07:37:22;100395.94;;;19.15;59.29
79006;BME280;69202;45.498;-73.582;2023-07-29T07:39:48;100482.44;;;19.75;60.53
79006;BME280;69202;45.498;-73.582;2023-07-29T07:42:14;100364.34;;;19.02;59.43
79006;BME280;69202;45.498;-73.582;2023-07-29T07:44:40;100384.00;;;19.31;60.78
79006;BME280;69202;45.498;-73.582;2023-07-29T07:47:06;100604.56;;;20.72;60.33
79006;BME280;69202;45.498;-73.582;2023-07-29T07:49:32;100607.34;;;20.77;59.48
79006;BME280;69202;45.498;-73.582;2023-07-29T07:51:58;100376.09;;;19.45;58.20
79006;BME280;69202;45.498;-73.582;2023-07-29T07:54:24;100336.13;;;19.07;56.72
79006;BME280;69202;45.498;-73.582;2023-07-29T07:57:15;100534.34;;;20.34;59.01
79006;BME280;69202;45.498;-73.582;2023-07-29T07:59:47;100222.19;;;18.26;59.47
79006;BME280;69202;45.498;-73.582;2023-07-29T08:02:43;100601.00;;;20.77;58.61
79006;BME280;69202;45.498;-73.582;2023-07-29T08:08:30;100388.41;;;19.37;57.25
79006;BME280;69202;45.498;-73.582;2023-07-29T08:18:09;100250.50;;;18.79;61.48
79006;BME280;69202;45.498;-73.582;2023-07-29T08:24:42;100211.72;;;18.55;61.48
79006;BME280;69202;45.498;-73.582;2023-07-29T08:31:00;100400.03;;;19.54;59.52
79006;BME280;69202;45.498;-73.582;2023-07-29T08:34:15;100371.22;;;19.52;61.89
79006;BME280;69202;45.498;-73.582;2023-07-29T08:40:12;100222.38;;;18.52;60.26
79006;BME280;69202;45.498;-73.582;2023-07-29T08:43:13;100628.84;;;20.95;56.54
79006;BME280;69202;45.498;-73.582;2023-07-29T08:46:10;100640.59;;;20.81;56.74
79006;BME280;69202;45.498;-73.582;2023-07-29T08:49:10;100282.59;;;18.52;56.60
79006;BME280;69202;45.498;-73.582;2023-07-29T09:01:44;100662.03;;;20.79;56.92
79006;BME280;69202;45.498;-73.582;2023-07-29T09:05:01;100285.25;;;18.41;56.46
79006;BME280;69202;45.498;-73.582;2023-07-29T09:08:05;100472.78;;;19.62;61.73
79006;BME280;69202;45.498;-73.582;2023-07-29T09:11:17;100550.06;;;19.96;57.61
79006;BME280;69202;45.498;-73.582;2023-07-29T09:14:07;100397.38;;;18.85;57.68
79006;BME280;69202;45.498;-73.582;2023-07-29T09:17:07;100413.25;;;18.83;57.51
79006;BME280;69202;45.498;-73.582;2023-07-29T09:20:07;100414.13;;;18.89;57.93
79006;BME280;69202;45.498;-73.582;2023-07-29T09:22:59;100298.31;;;18.29;59.46
79006;BME280;69202;45.498;-73.582;2023-07-29T09:26:03;100595.63;;;19.97;60.03
79006;BME280;69202;45.498;-73.582;2023-07-29T09:28:59;100700.78;;;20.35;60.21
79006;BME280;69202;45.498;-73.582;2023-07-29T09:31:36;100474.84;;;19.08;60.42
79006;BME280;69202;45.498;-73.582;2023-07-29T09:34:22;100421.16;;;18.80;59.54
79006;BME280;69202;45.498;-73.582;2023-07-29T09:37:14;100658.19;;;20.32;59.95
79006;BME280;69202;45.498;-73.582;2023-07-29T09:40:20;100482.63;;;19.21;59.40
79006;BME280;69202;45.498;-73.582;2023-07-29T09:46:25;100661.22;;;20.36;59.57
79006;BME280;69202;45.498;-73.582;2023-07-29T09:49:28;100583.81;;;19.92;60.64
79006;BME280;69202;45.498;-73.582;2023-07-29T09:52:30;100438.69;;;19.16;62.49
79006;BME280;69202;45.498;-73.582;2023-07-29T09:58:25;100301.75;;;18.46;62.33
79006;BME280;69202;45.498;-73.582;2023-07-29T10:01:37;100652.91;;;20.68;57.34
79006;BME280;69202;45.498;-73.582;2023-07-29T10:07:38;100652.41;;;20.76;56.61
79006;BME280;69202;45.498;-73.582;2023-07-29T10:10:14;100690.59;;;20.78;55.23
79006;BME280;69202;45.498;-73.582;2023-07-29T10:12:57;100444.31;;;19.36;55.06
79006;BME280;69202;45.498;-73.582;2023-07-29T10:19:20;100549.38;;;20.21;58.87
79006;BME280;69202;45.498;-73.582;2023-07-29T10:25:21;100650.50;;;20.87;56.86
79006;BME280;69202;45.498;-73.582;2023-07-29T10:28:21;100654.91;;;20.93;57.16
79006;BME280;69202;45.498;-73.582;2023-07-29T10:31:09;100405.03;;;19.20;56.39
79006;BME280;69202;45.498;-73.582;2023-07-29T10:37:04;100692.47;;;21.29;57.46
79006;BME280;69202;45.498;-73.582;2023-07-29T10:40:37;100663.25;;;21.23;57.22
79006;BME280;69202;45.498;-73.582;2023-07-29T10:43:24;100703.25;;;21.87;53.65
79006;BME280;69202;45.498;-73.582;2023-07-29T10:46:40;100593.44;;;22.86;49.49
79006;BME280;69202;45.498;-73.582;2023-07-29T10:49:29;100336.22;;;22.12;45.72
79006;BME280;69202;45.498;-73.582;2023-07-29T10:52:41;100665.88;;;24.72;45.37
79006;BME280;69202;45.498;-73.582;2023-07-29T11:05:28;100378.94;;;21.29;48.18
79006;BME280;69202;45.498;-73.582;2023-07-29T11:08:43;100687.53;;;23.23;45.63
79006;BME280;69202;45.498;-73.582;2023-07-29T11:11:48;100573.00;;;22.27;47.53
79006;BME280;69202;45.498;-73.582;2023-07-29T11:23:52;100712.09;;;22.45;45.01
79006;BME280;69202;45.498;-73.582;2023-07-29T11:26:45;100702.97;;;22.39;45.31
79006;BME280;69202;45.498;-73.582;2023-07-29T11:29:34;100341.00;;;20.14;49.95
79006;BME280;69202;45.498;-73.582;2023-07-29T11:32:17;100609.41;;;21.73;45.58
79006;BME280;69202;45.498;-73.582;2023-07-29T11:34:56;100519.97;;;20.99;47.76
79006;BME280;69202;45.498;-73.582;2023-07-29T11:38:00;100719.56;;;22.24;47.43
79006;BME280;69202;45.498;-73.582;2023-07-29T11:40:41;100668.31;;;21.93;48.32
79006;BME280;69202;45.498;-73.582;2023-07-29T11:43:18;100586.59;;;21.42;46.67
79006;BME280;69202;45.498;-73.582;2023-07-29T11:45:55;100359.34;;;19.94;46.52
79006;BME280;69202;45.498;-73.582;2023-07-29T11:51:53;100549.16;;;21.16;46.06
79006;BME280;69202;45.498;-73.582;2023-07-29T11:54:42;100319.25;;;19.82;47.61
79006;BME280;69202;45.498;-73.582;2023-07-29T11:57:42;100297.00;;;19.74;48.71
79006;BME280;69202;45.498;-73.582;2023-07-29T12:00:44;100403.69;;;20.79;50.53
79006;BME280;69202;45.498;-73.582;2023-07-29T12:03:49;100705.63;;;22.80;47.14
79006;BME280;69202;45.498;-73.582;2023-07-29T12:10:00;100605.75;;;22.34;45.62
79006;BME280;69202;45.498;-73.582;2023-07-29T12:12:47;100510.06;;;21.80;46.87
79006;BME280;69202;45.498;-73.582;2023-07-29T12:15:29;100528.16;;;21.96;46.56
79006;BME280;69202;45.498;-73.582;2023-07-29T12:18:09;100652.75;;;22.68;46.82
79006;BME280;69202;45.498;-73.582;2023-07-29T12:23:44;100408.06;;;21.41;42.03
79006;BME280;69202;45.498;-73.582;2023-07-29T12:26:52;100356.94;;;21.19;45.13
79006;BME280;69202;45.498;-73.582;2023-07-29T12:29:28;100460.97;;;22.02;49.02
79006;BME280;69202;45.498;-73.582;2023-07-29T12:38:50;100349.97;;;21.57;44.56
79006;BME280;69202;45.498;-73.582;2023-07-29T12:48:13;100417.31;;;22.35;44.22
79006;BME280;69202;45.498;-73.582;2023-07-29T12:54:29;100541.03;;;22.31;42.38
79006;BME280;69202;45.498;-73.582;2023-07-29T12:57:15;100729.53;;;23.15;42.56
79006;BME280;69202;45.498;-73.582;2023-07-29T13:06:20;100696.53;;;22.80;42.30
79006;BME280;69202;45.498;-73.582;2023-07-29T13:09:21;100445.72;;;21.15;43.88
79006;BME280;69202;45.498;-73.582;2023-07-29T13:12:01;100546.59;;;22.16;50.03
79006;BME280;69202;45.498;-73.582;2023-07-29T13:24:36;100703.78;;;23.35;43.26
79006;BME280;69202;45.498;-73.582;2023-07-29T13:27:14;100687.53;;;23.28;43.84
79006;BME280;69202;45.498;-73.582;2023-07-29T13:30:22;100278.09;;;20.89;43.70
79006;BME280;69202;45.498;-73.582;2023-07-29T13:33:20;100483.91;;;22.52;41.49
79006;BME280;69202;45.498;-73.582;2023-07-29T13:36:05;100336.22;;;21.52;43.97
79006;BME280;69202;45.498;-73.582;2023-07-29T13:39:05;100429.19;;;21.60;45.57
79006;BME280;69202;45.498;-73.582;2023-07-29T13:45:38;100561.31;;;22.51;48.84
79006;BME280;69202;45.498;-73.582;2023-07-29T13:48:25;100521.56;;;22.07;45.65
79006;BME280;69202;45.498;-73.582;2023-07-29T13:51:39;100629.31;;;22.70;49.91
79006;BME280;69202;45.498;-73.582;2023-07-29T14:01:35;100247.38;;;20.26;48.03
79006;BME280;69202;45.498;-73.582;2023-07-29T14:07:32;100291.59;;;20.14;48.18
79006;BME280;69202;45.498;-73.582;2023-07-29T14:10:07;100433.91;;;21.04;47.89
79006;BME280;69202;45.498;-73.582;2023-07-29T14:12:33;100479.81;;;21.14;48.00
79006;BME280;69202;45.498;-73.582;2023-07-29T14:14:59;100589.03;;;21.84;50.93
79006;BME280;69202;45.498;-73.582;2023-07-29T14:17:28;100556.03;;;21.44;49.24
79006;BME280;69202;45.498;-73.582;2023-07-29T14:19:56;100530.72;;;21.52;47.65
79006;BME280;69202;45.498;-73.582;2023-07-29T14:22:22;100266.28;;;19.72;46.08
79006;BME280;69202;45.498;-73.582;2023-07-29T14:24:54;100335.53;;;20.35;48.78
79006;BME280;69202;45.498;-73.582;2023-07-29T14:27:22;100341.00;;;20.40;46.47
79006;BME280;69202;45.498;-73.582;2023-07-29T14:29:51;100588.44;;;21.98;49.25
79006;BME280;69202;45.498;-73.582;2023-07-29T14:32:23;100459.22;;;21.47;50.06
79006;BME280;69202;45.498;-73.582;2023-07-29T14:34:55;100266.59;;;20.31;45.31
79006;BME280;69202;45.498;-73.582;2023-07-29T14:37:37;100315.47;;;20.90;48.88
79006;BME280;69202;45.498;-73.582;2023-07-29T14:40:10;100483.72;;;22.28;48.33
79006;BME280;69202;45.498;-73.582;2023-07-29T14:42:44;100290.22;;;21.68;43.89
79006;BME280;69202;45.498;-73.582;2023-07-29T14:45:27;100298.31;;;21.94;43.56
79006;BME280;69202;45.498;-73.582;2023-07-29T14:48:10;100672.84;;;24.11;41.09
79006;BME280;69202;45.498;-73.582;2023-07-29T14:50:44;100429.91;;;22.90;40.18
79006;BME280;69202;45.498;-73.582;2023-07-29T14:53:13;100402.69;;;22.39;40.28
79006;BME280;69202;45.498;-73.582;2023-07-29T14:55:41;100496.28;;;22.99;42.07
79006;BME280;69202;45.498;-73.582;2023-07-29T14:58:10;100260.88;;;21.48;44.54
79006;BME280;69202;45.498;-73.582;2023-07-29T15:00:46;100490.56;;;23.24;43.66
79006;BME280;69202;45.498;-73.582;2023-07-29T15:03:14;100627.47;;;24.17;44.69
79006;BME280;69202;45.498;-73.582;2023-07-29T15:05:40;100423.69;;;23.09;46.90
79006;BME280;69202;45.498;-73.582;2023-07-29T15:08:14;100260.22;;;22.11;47.76
79006;BME280;69202;45.498;-73.582;2023-07-29T15:10:57;100603.19;;;24.14;44.94
79006;BME280;69202;45.498;-73.582;2023-07-29T15:13:23;100449.53;;;22.79;46.28